<?xml version="1.0" encoding="UTF-8" standalone="no" ?>
<gpx xmlns="http://www.topografix.com/GPX/1/1" xmlns:xsi="http://www.w3.org/2001/XMLSchema-instance" xsi:schemaLocation="http://www.topografix.com/GPX/1/1 http://www.topografix.com/GPX/1/1/gpx.xsd" version="1.1" creator="VisuGPX - https://www.visugpx.com">
  <metadata>
    <name>04-JUIN-13 16:14:44</name>
  </metadata>
  <trk>
    <name><![CDATA[04-JUIN-13 16:14:44]]></name>
    <trkseg>
      <trkpt lat="44.86948" lon="5.70927">
        <ele>533.67</ele>
        <time>2013-06-04T09:16:50Z</time>
      </trkpt>
      <trkpt lat="44.86932" lon="5.70909">
        <ele>530.3</ele>
        <time>2013-06-04T09:17:20Z</time>
      </trkpt>
      <trkpt lat="44.86909" lon="5.70904">
        <ele>527.9</ele>
        <time>2013-06-04T09:17:50Z</time>
      </trkpt>
      <trkpt lat="44.86878" lon="5.70878">
        <ele>525.5</ele>
        <time>2013-06-04T09:18:20Z</time>
      </trkpt>
      <trkpt lat="44.86864" lon="5.70865">
        <ele>525.5</ele>
        <time>2013-06-04T09:18:50Z</time>
      </trkpt>
      <trkpt lat="44.86853" lon="5.70844">
        <ele>525.98</ele>
        <time>2013-06-04T09:19:20Z</time>
      </trkpt>
      <trkpt lat="44.86821" lon="5.70825">
        <ele>526.94</ele>
        <time>2013-06-04T09:19:50Z</time>
      </trkpt>
      <trkpt lat="44.868" lon="5.70799">
        <ele>531.75</ele>
        <time>2013-06-04T09:20:20Z</time>
      </trkpt>
      <trkpt lat="44.86787" lon="5.70789">
        <ele>533.67</ele>
        <time>2013-06-04T09:20:50Z</time>
      </trkpt>
      <trkpt lat="44.86788" lon="5.70782">
        <ele>535.59</ele>
        <time>2013-06-04T09:21:20Z</time>
      </trkpt>
      <trkpt lat="44.86789" lon="5.70783">
        <ele>535.59</ele>
        <time>2013-06-04T09:21:50Z</time>
      </trkpt>
      <trkpt lat="44.86787" lon="5.70787">
        <ele>535.59</ele>
        <time>2013-06-04T09:22:20Z</time>
      </trkpt>
      <trkpt lat="44.86785" lon="5.70784">
        <ele>534.63</ele>
        <time>2013-06-04T09:22:50Z</time>
      </trkpt>
      <trkpt lat="44.86785" lon="5.70785">
        <ele>535.11</ele>
        <time>2013-06-04T09:23:20Z</time>
      </trkpt>
      <trkpt lat="44.86801" lon="5.70794">
        <ele>531.27</ele>
        <time>2013-06-04T09:23:50Z</time>
      </trkpt>
      <trkpt lat="44.86793" lon="5.70787">
        <ele>533.19</ele>
        <time>2013-06-04T09:24:20Z</time>
      </trkpt>
      <trkpt lat="44.86785" lon="5.70781">
        <ele>534.15</ele>
        <time>2013-06-04T09:24:50Z</time>
      </trkpt>
      <trkpt lat="44.86798" lon="5.70781">
        <ele>535.59</ele>
        <time>2013-06-04T09:25:20Z</time>
      </trkpt>
      <trkpt lat="44.86796" lon="5.70778">
        <ele>535.59</ele>
        <time>2013-06-04T09:25:50Z</time>
      </trkpt>
      <trkpt lat="44.8679" lon="5.70781">
        <ele>535.11</ele>
        <time>2013-06-04T09:26:20Z</time>
      </trkpt>
      <trkpt lat="44.86791" lon="5.70778">
        <ele>535.11</ele>
        <time>2013-06-04T09:26:50Z</time>
      </trkpt>
      <trkpt lat="44.86788" lon="5.7077">
        <ele>536.07</ele>
        <time>2013-06-04T09:27:20Z</time>
      </trkpt>
      <trkpt lat="44.86787" lon="5.70777">
        <ele>535.59</ele>
        <time>2013-06-04T09:27:50Z</time>
      </trkpt>
      <trkpt lat="44.86793" lon="5.70776">
        <ele>537.03</ele>
        <time>2013-06-04T09:28:20Z</time>
      </trkpt>
      <trkpt lat="44.86793" lon="5.70776">
        <ele>536.55</ele>
        <time>2013-06-04T09:28:50Z</time>
      </trkpt>
      <trkpt lat="44.86793" lon="5.70772">
        <ele>536.55</ele>
        <time>2013-06-04T09:29:20Z</time>
      </trkpt>
      <trkpt lat="44.86787" lon="5.70768">
        <ele>536.55</ele>
        <time>2013-06-04T09:29:50Z</time>
      </trkpt>
      <trkpt lat="44.86784" lon="5.70735">
        <ele>531.27</ele>
        <time>2013-06-04T09:30:20Z</time>
      </trkpt>
      <trkpt lat="44.86783" lon="5.70712">
        <ele>526.94</ele>
        <time>2013-06-04T09:30:50Z</time>
      </trkpt>
      <trkpt lat="44.8679" lon="5.70683">
        <ele>522.13</ele>
        <time>2013-06-04T09:31:20Z</time>
      </trkpt>
      <trkpt lat="44.86801" lon="5.70654">
        <ele>516.37</ele>
        <time>2013-06-04T09:31:50Z</time>
      </trkpt>
      <trkpt lat="44.86818" lon="5.7061">
        <ele>508.67</ele>
        <time>2013-06-04T09:32:20Z</time>
      </trkpt>
      <trkpt lat="44.86835" lon="5.70575">
        <ele>503.39</ele>
        <time>2013-06-04T09:32:50Z</time>
      </trkpt>
      <trkpt lat="44.86836" lon="5.70555">
        <ele>498.1</ele>
        <time>2013-06-04T09:33:20Z</time>
      </trkpt>
      <trkpt lat="44.86858" lon="5.70551">
        <ele>501.95</ele>
        <time>2013-06-04T09:33:50Z</time>
      </trkpt>
      <trkpt lat="44.86858" lon="5.70525">
        <ele>503.39</ele>
        <time>2013-06-04T09:34:20Z</time>
      </trkpt>
      <trkpt lat="44.8684" lon="5.70502">
        <ele>509.16</ele>
        <time>2013-06-04T09:34:50Z</time>
      </trkpt>
      <trkpt lat="44.86838" lon="5.7046">
        <ele>512.52</ele>
        <time>2013-06-04T09:35:20Z</time>
      </trkpt>
      <trkpt lat="44.86839" lon="5.70428">
        <ele>517.81</ele>
        <time>2013-06-04T09:35:50Z</time>
      </trkpt>
      <trkpt lat="44.86831" lon="5.70391">
        <ele>519.73</ele>
        <time>2013-06-04T09:36:20Z</time>
      </trkpt>
      <trkpt lat="44.86816" lon="5.70359">
        <ele>525.5</ele>
        <time>2013-06-04T09:36:50Z</time>
      </trkpt>
      <trkpt lat="44.86795" lon="5.7034">
        <ele>532.71</ele>
        <time>2013-06-04T09:37:20Z</time>
      </trkpt>
      <trkpt lat="44.86773" lon="5.70315">
        <ele>535.11</ele>
        <time>2013-06-04T09:37:50Z</time>
      </trkpt>
      <trkpt lat="44.86773" lon="5.70275">
        <ele>535.59</ele>
        <time>2013-06-04T09:38:20Z</time>
      </trkpt>
      <trkpt lat="44.86755" lon="5.70254">
        <ele>539.92</ele>
        <time>2013-06-04T09:38:50Z</time>
      </trkpt>
      <trkpt lat="44.86742" lon="5.70228">
        <ele>547.13</ele>
        <time>2013-06-04T09:39:20Z</time>
      </trkpt>
      <trkpt lat="44.86732" lon="5.70192">
        <ele>550.97</ele>
        <time>2013-06-04T09:39:50Z</time>
      </trkpt>
      <trkpt lat="44.86732" lon="5.70153">
        <ele>557.22</ele>
        <time>2013-06-04T09:40:20Z</time>
      </trkpt>
      <trkpt lat="44.8673" lon="5.70117">
        <ele>563.47</ele>
        <time>2013-06-04T09:40:50Z</time>
      </trkpt>
      <trkpt lat="44.86725" lon="5.7008">
        <ele>569.72</ele>
        <time>2013-06-04T09:41:20Z</time>
      </trkpt>
      <trkpt lat="44.86714" lon="5.70047">
        <ele>575.97</ele>
        <time>2013-06-04T09:41:50Z</time>
      </trkpt>
      <trkpt lat="44.86713" lon="5.70045">
        <ele>575.97</ele>
        <time>2013-06-04T09:42:20Z</time>
      </trkpt>
      <trkpt lat="44.86703" lon="5.70039">
        <ele>580.29</ele>
        <time>2013-06-04T09:42:50Z</time>
      </trkpt>
      <trkpt lat="44.86695" lon="5.7001">
        <ele>586.54</ele>
        <time>2013-06-04T09:43:20Z</time>
      </trkpt>
      <trkpt lat="44.8668" lon="5.70031">
        <ele>589.91</ele>
        <time>2013-06-04T09:43:50Z</time>
      </trkpt>
      <trkpt lat="44.86656" lon="5.70037">
        <ele>596.15</ele>
        <time>2013-06-04T09:44:20Z</time>
      </trkpt>
      <trkpt lat="44.86642" lon="5.7">
        <ele>598.08</ele>
        <time>2013-06-04T09:44:50Z</time>
      </trkpt>
      <trkpt lat="44.86644" lon="5.70009">
        <ele>598.56</ele>
        <time>2013-06-04T09:45:20Z</time>
      </trkpt>
      <trkpt lat="44.86644" lon="5.70011">
        <ele>598.56</ele>
        <time>2013-06-04T09:45:50Z</time>
      </trkpt>
      <trkpt lat="44.86642" lon="5.70008">
        <ele>598.56</ele>
        <time>2013-06-04T09:46:20Z</time>
      </trkpt>
      <trkpt lat="44.86641" lon="5.70015">
        <ele>599.52</ele>
        <time>2013-06-04T09:46:50Z</time>
      </trkpt>
      <trkpt lat="44.86643" lon="5.70017">
        <ele>598.56</ele>
        <time>2013-06-04T09:47:20Z</time>
      </trkpt>
      <trkpt lat="44.86646" lon="5.70009">
        <ele>599.04</ele>
        <time>2013-06-04T09:47:50Z</time>
      </trkpt>
      <trkpt lat="44.86648" lon="5.70009">
        <ele>599.52</ele>
        <time>2013-06-04T09:48:20Z</time>
      </trkpt>
      <trkpt lat="44.86644" lon="5.70008">
        <ele>600.96</ele>
        <time>2013-06-04T09:48:50Z</time>
      </trkpt>
      <trkpt lat="44.86644" lon="5.70009">
        <ele>599.04</ele>
        <time>2013-06-04T09:48:52Z</time>
      </trkpt>
      <trkpt lat="44.86644" lon="5.70008">
        <ele>610.09</ele>
        <time>2013-06-04T09:49:10Z</time>
      </trkpt>
      <trkpt lat="44.86643" lon="5.70009">
        <ele>610.09</ele>
        <time>2013-06-04T09:49:41Z</time>
      </trkpt>
      <trkpt lat="44.86641" lon="5.70014">
        <ele>610.09</ele>
        <time>2013-06-04T09:50:11Z</time>
      </trkpt>
      <trkpt lat="44.8664" lon="5.70019">
        <ele>609.61</ele>
        <time>2013-06-04T09:50:41Z</time>
      </trkpt>
      <trkpt lat="44.86645" lon="5.70012">
        <ele>609.61</ele>
        <time>2013-06-04T09:51:11Z</time>
      </trkpt>
      <trkpt lat="44.86647" lon="5.70012">
        <ele>609.61</ele>
        <time>2013-06-04T09:51:41Z</time>
      </trkpt>
      <trkpt lat="44.86647" lon="5.70016">
        <ele>609.61</ele>
        <time>2013-06-04T09:52:11Z</time>
      </trkpt>
      <trkpt lat="44.86644" lon="5.70012">
        <ele>609.13</ele>
        <time>2013-06-04T09:52:41Z</time>
      </trkpt>
      <trkpt lat="44.86644" lon="5.70011">
        <ele>609.13</ele>
        <time>2013-06-04T09:53:11Z</time>
      </trkpt>
      <trkpt lat="44.86642" lon="5.70021">
        <ele>609.61</ele>
        <time>2013-06-04T09:53:41Z</time>
      </trkpt>
      <trkpt lat="44.86645" lon="5.70013">
        <ele>609.61</ele>
        <time>2013-06-04T09:54:11Z</time>
      </trkpt>
      <trkpt lat="44.86645" lon="5.70009">
        <ele>609.13</ele>
        <time>2013-06-04T09:54:41Z</time>
      </trkpt>
      <trkpt lat="44.86642" lon="5.70007">
        <ele>609.61</ele>
        <time>2013-06-04T09:55:11Z</time>
      </trkpt>
      <trkpt lat="44.86642" lon="5.70001">
        <ele>609.13</ele>
        <time>2013-06-04T09:55:41Z</time>
      </trkpt>
      <trkpt lat="44.86641" lon="5.70005">
        <ele>610.57</ele>
        <time>2013-06-04T09:56:11Z</time>
      </trkpt>
      <trkpt lat="44.86646" lon="5.70008">
        <ele>609.61</ele>
        <time>2013-06-04T09:56:41Z</time>
      </trkpt>
      <trkpt lat="44.86648" lon="5.7001">
        <ele>608.17</ele>
        <time>2013-06-04T09:57:11Z</time>
      </trkpt>
      <trkpt lat="44.86651" lon="5.70009">
        <ele>609.61</ele>
        <time>2013-06-04T09:57:41Z</time>
      </trkpt>
      <trkpt lat="44.86646" lon="5.69979">
        <ele>604.33</ele>
        <time>2013-06-04T09:58:11Z</time>
      </trkpt>
      <trkpt lat="44.86631" lon="5.69945">
        <ele>604.81</ele>
        <time>2013-06-04T09:58:41Z</time>
      </trkpt>
      <trkpt lat="44.86617" lon="5.69916">
        <ele>602.4</ele>
        <time>2013-06-04T09:59:11Z</time>
      </trkpt>
      <trkpt lat="44.86594" lon="5.69895">
        <ele>603.36</ele>
        <time>2013-06-04T09:59:41Z</time>
      </trkpt>
      <trkpt lat="44.86574" lon="5.69866">
        <ele>602.4</ele>
        <time>2013-06-04T10:00:11Z</time>
      </trkpt>
      <trkpt lat="44.86558" lon="5.69841">
        <ele>599.52</ele>
        <time>2013-06-04T10:00:41Z</time>
      </trkpt>
      <trkpt lat="44.86546" lon="5.69818">
        <ele>599.52</ele>
        <time>2013-06-04T10:01:11Z</time>
      </trkpt>
      <trkpt lat="44.86534" lon="5.69812">
        <ele>603.36</ele>
        <time>2013-06-04T10:01:41Z</time>
      </trkpt>
      <trkpt lat="44.86534" lon="5.69787">
        <ele>603.36</ele>
        <time>2013-06-04T10:02:11Z</time>
      </trkpt>
      <trkpt lat="44.86529" lon="5.69771">
        <ele>605.77</ele>
        <time>2013-06-04T10:02:41Z</time>
      </trkpt>
      <trkpt lat="44.86522" lon="5.69769">
        <ele>605.77</ele>
        <time>2013-06-04T10:03:11Z</time>
      </trkpt>
      <trkpt lat="44.86524" lon="5.69772">
        <ele>605.29</ele>
        <time>2013-06-04T10:03:41Z</time>
      </trkpt>
      <trkpt lat="44.86523" lon="5.69749">
        <ele>607.21</ele>
        <time>2013-06-04T10:04:11Z</time>
      </trkpt>
      <trkpt lat="44.86521" lon="5.69718">
        <ele>610.57</ele>
        <time>2013-06-04T10:04:41Z</time>
      </trkpt>
      <trkpt lat="44.86517" lon="5.69704">
        <ele>613.46</ele>
        <time>2013-06-04T10:05:11Z</time>
      </trkpt>
      <trkpt lat="44.86514" lon="5.69713">
        <ele>612.02</ele>
        <time>2013-06-04T10:05:41Z</time>
      </trkpt>
      <trkpt lat="44.86525" lon="5.69693">
        <ele>612.5</ele>
        <time>2013-06-04T10:06:11Z</time>
      </trkpt>
      <trkpt lat="44.86543" lon="5.6969">
        <ele>610.09</ele>
        <time>2013-06-04T10:06:41Z</time>
      </trkpt>
      <trkpt lat="44.86552" lon="5.69687">
        <ele>608.65</ele>
        <time>2013-06-04T10:07:11Z</time>
      </trkpt>
      <trkpt lat="44.86557" lon="5.69689">
        <ele>607.21</ele>
        <time>2013-06-04T10:07:41Z</time>
      </trkpt>
      <trkpt lat="44.86566" lon="5.69686">
        <ele>607.21</ele>
        <time>2013-06-04T10:08:11Z</time>
      </trkpt>
      <trkpt lat="44.86576" lon="5.69674">
        <ele>609.61</ele>
        <time>2013-06-04T10:08:41Z</time>
      </trkpt>
      <trkpt lat="44.86599" lon="5.69653">
        <ele>613.94</ele>
        <time>2013-06-04T10:09:11Z</time>
      </trkpt>
      <trkpt lat="44.866" lon="5.69621">
        <ele>618.26</ele>
        <time>2013-06-04T10:09:41Z</time>
      </trkpt>
      <trkpt lat="44.86603" lon="5.69588">
        <ele>623.55</ele>
        <time>2013-06-04T10:10:11Z</time>
      </trkpt>
      <trkpt lat="44.86614" lon="5.69569">
        <ele>626.44</ele>
        <time>2013-06-04T10:10:41Z</time>
      </trkpt>
      <trkpt lat="44.86625" lon="5.69543">
        <ele>628.36</ele>
        <time>2013-06-04T10:11:11Z</time>
      </trkpt>
      <trkpt lat="44.8663" lon="5.69504">
        <ele>629.8</ele>
        <time>2013-06-04T10:11:41Z</time>
      </trkpt>
      <trkpt lat="44.86625" lon="5.69475">
        <ele>632.2</ele>
        <time>2013-06-04T10:12:11Z</time>
      </trkpt>
      <trkpt lat="44.86605" lon="5.69503">
        <ele>632.68</ele>
        <time>2013-06-04T10:12:41Z</time>
      </trkpt>
      <trkpt lat="44.86579" lon="5.69528">
        <ele>634.13</ele>
        <time>2013-06-04T10:13:11Z</time>
      </trkpt>
      <trkpt lat="44.8655" lon="5.69524">
        <ele>635.57</ele>
        <time>2013-06-04T10:13:41Z</time>
      </trkpt>
      <trkpt lat="44.86523" lon="5.69504">
        <ele>638.93</ele>
        <time>2013-06-04T10:14:11Z</time>
      </trkpt>
      <trkpt lat="44.865" lon="5.69483">
        <ele>643.74</ele>
        <time>2013-06-04T10:14:41Z</time>
      </trkpt>
      <trkpt lat="44.86475" lon="5.69455">
        <ele>647.59</ele>
        <time>2013-06-04T10:15:11Z</time>
      </trkpt>
      <trkpt lat="44.86454" lon="5.69432">
        <ele>652.87</ele>
        <time>2013-06-04T10:15:41Z</time>
      </trkpt>
      <trkpt lat="44.86431" lon="5.69415">
        <ele>658.16</ele>
        <time>2013-06-04T10:16:11Z</time>
      </trkpt>
      <trkpt lat="44.86424" lon="5.69416">
        <ele>658.64</ele>
        <time>2013-06-04T10:16:41Z</time>
      </trkpt>
      <trkpt lat="44.86397" lon="5.69409">
        <ele>662.97</ele>
        <time>2013-06-04T10:17:11Z</time>
      </trkpt>
      <trkpt lat="44.86378" lon="5.69409">
        <ele>667.29</ele>
        <time>2013-06-04T10:17:41Z</time>
      </trkpt>
      <trkpt lat="44.86367" lon="5.69406">
        <ele>668.73</ele>
        <time>2013-06-04T10:18:11Z</time>
      </trkpt>
      <trkpt lat="44.86365" lon="5.69403">
        <ele>668.73</ele>
        <time>2013-06-04T10:18:41Z</time>
      </trkpt>
      <trkpt lat="44.86366" lon="5.69402">
        <ele>669.22</ele>
        <time>2013-06-04T10:19:11Z</time>
      </trkpt>
      <trkpt lat="44.86366" lon="5.69401">
        <ele>669.22</ele>
        <time>2013-06-04T10:19:41Z</time>
      </trkpt>
      <trkpt lat="44.86363" lon="5.69402">
        <ele>669.22</ele>
        <time>2013-06-04T10:20:11Z</time>
      </trkpt>
      <trkpt lat="44.86369" lon="5.69403">
        <ele>669.22</ele>
        <time>2013-06-04T10:20:41Z</time>
      </trkpt>
      <trkpt lat="44.86371" lon="5.6941">
        <ele>669.22</ele>
        <time>2013-06-04T10:21:11Z</time>
      </trkpt>
      <trkpt lat="44.86371" lon="5.69405">
        <ele>669.7</ele>
        <time>2013-06-04T10:21:41Z</time>
      </trkpt>
      <trkpt lat="44.86364" lon="5.69402">
        <ele>670.18</ele>
        <time>2013-06-04T10:22:11Z</time>
      </trkpt>
      <trkpt lat="44.86352" lon="5.69386">
        <ele>671.62</ele>
        <time>2013-06-04T10:22:41Z</time>
      </trkpt>
      <trkpt lat="44.86344" lon="5.69359">
        <ele>675.94</ele>
        <time>2013-06-04T10:23:11Z</time>
      </trkpt>
      <trkpt lat="44.86345" lon="5.69339">
        <ele>676.91</ele>
        <time>2013-06-04T10:23:41Z</time>
      </trkpt>
      <trkpt lat="44.86349" lon="5.69306">
        <ele>677.39</ele>
        <time>2013-06-04T10:24:11Z</time>
      </trkpt>
      <trkpt lat="44.8636" lon="5.69268">
        <ele>674.98</ele>
        <time>2013-06-04T10:24:41Z</time>
      </trkpt>
      <trkpt lat="44.86384" lon="5.69238">
        <ele>671.14</ele>
        <time>2013-06-04T10:25:11Z</time>
      </trkpt>
      <trkpt lat="44.86411" lon="5.69216">
        <ele>669.22</ele>
        <time>2013-06-04T10:25:41Z</time>
      </trkpt>
      <trkpt lat="44.86437" lon="5.69188">
        <ele>665.85</ele>
        <time>2013-06-04T10:26:11Z</time>
      </trkpt>
      <trkpt lat="44.86462" lon="5.69165">
        <ele>663.45</ele>
        <time>2013-06-04T10:26:41Z</time>
      </trkpt>
      <trkpt lat="44.86487" lon="5.69147">
        <ele>662.01</ele>
        <time>2013-06-04T10:27:11Z</time>
      </trkpt>
      <trkpt lat="44.86507" lon="5.69115">
        <ele>658.64</ele>
        <time>2013-06-04T10:27:41Z</time>
      </trkpt>
      <trkpt lat="44.86525" lon="5.69077">
        <ele>660.08</ele>
        <time>2013-06-04T10:28:11Z</time>
      </trkpt>
      <trkpt lat="44.86532" lon="5.69051">
        <ele>659.12</ele>
        <time>2013-06-04T10:28:41Z</time>
      </trkpt>
      <trkpt lat="44.86507" lon="5.69033">
        <ele>662.49</ele>
        <time>2013-06-04T10:29:11Z</time>
      </trkpt>
      <trkpt lat="44.86482" lon="5.6902">
        <ele>663.93</ele>
        <time>2013-06-04T10:29:41Z</time>
      </trkpt>
      <trkpt lat="44.8646" lon="5.68999">
        <ele>667.77</ele>
        <time>2013-06-04T10:30:11Z</time>
      </trkpt>
      <trkpt lat="44.86444" lon="5.68976">
        <ele>670.66</ele>
        <time>2013-06-04T10:30:41Z</time>
      </trkpt>
      <trkpt lat="44.86425" lon="5.68952">
        <ele>674.98</ele>
        <time>2013-06-04T10:31:11Z</time>
      </trkpt>
      <trkpt lat="44.86413" lon="5.6893">
        <ele>680.75</ele>
        <time>2013-06-04T10:31:41Z</time>
      </trkpt>
      <trkpt lat="44.86395" lon="5.68909">
        <ele>688.92</ele>
        <time>2013-06-04T10:32:11Z</time>
      </trkpt>
      <trkpt lat="44.86376" lon="5.68893">
        <ele>696.61</ele>
        <time>2013-06-04T10:32:41Z</time>
      </trkpt>
      <trkpt lat="44.86367" lon="5.68884">
        <ele>699.5</ele>
        <time>2013-06-04T10:33:11Z</time>
      </trkpt>
      <trkpt lat="44.86366" lon="5.68871">
        <ele>699.5</ele>
        <time>2013-06-04T10:33:41Z</time>
      </trkpt>
      <trkpt lat="44.86361" lon="5.68879">
        <ele>699.98</ele>
        <time>2013-06-04T10:34:11Z</time>
      </trkpt>
      <trkpt lat="44.86362" lon="5.68878">
        <ele>700.46</ele>
        <time>2013-06-04T10:34:41Z</time>
      </trkpt>
      <trkpt lat="44.8636" lon="5.68876">
        <ele>700.94</ele>
        <time>2013-06-04T10:35:11Z</time>
      </trkpt>
      <trkpt lat="44.86372" lon="5.68895">
        <ele>698.05</ele>
        <time>2013-06-04T10:35:41Z</time>
      </trkpt>
      <trkpt lat="44.86375" lon="5.68891">
        <ele>697.09</ele>
        <time>2013-06-04T10:36:11Z</time>
      </trkpt>
      <trkpt lat="44.86379" lon="5.68893">
        <ele>697.57</ele>
        <time>2013-06-04T10:36:41Z</time>
      </trkpt>
      <trkpt lat="44.86373" lon="5.68893">
        <ele>697.09</ele>
        <time>2013-06-04T10:37:11Z</time>
      </trkpt>
      <trkpt lat="44.86373" lon="5.68886">
        <ele>698.53</ele>
        <time>2013-06-04T10:37:41Z</time>
      </trkpt>
      <trkpt lat="44.86362" lon="5.68892">
        <ele>699.02</ele>
        <time>2013-06-04T10:38:11Z</time>
      </trkpt>
      <trkpt lat="44.86363" lon="5.6889">
        <ele>699.98</ele>
        <time>2013-06-04T10:38:41Z</time>
      </trkpt>
      <trkpt lat="44.86364" lon="5.68888">
        <ele>699.98</ele>
        <time>2013-06-04T10:39:11Z</time>
      </trkpt>
      <trkpt lat="44.86363" lon="5.68891">
        <ele>699.5</ele>
        <time>2013-06-04T10:39:41Z</time>
      </trkpt>
      <trkpt lat="44.86362" lon="5.68893">
        <ele>700.46</ele>
        <time>2013-06-04T10:40:11Z</time>
      </trkpt>
      <trkpt lat="44.86362" lon="5.68893">
        <ele>700.46</ele>
        <time>2013-06-04T10:40:41Z</time>
      </trkpt>
      <trkpt lat="44.86362" lon="5.68891">
        <ele>700.46</ele>
        <time>2013-06-04T10:41:11Z</time>
      </trkpt>
      <trkpt lat="44.86345" lon="5.68906">
        <ele>701.9</ele>
        <time>2013-06-04T10:41:41Z</time>
      </trkpt>
      <trkpt lat="44.8632" lon="5.68918">
        <ele>703.82</ele>
        <time>2013-06-04T10:42:11Z</time>
      </trkpt>
      <trkpt lat="44.86293" lon="5.6893">
        <ele>706.71</ele>
        <time>2013-06-04T10:42:41Z</time>
      </trkpt>
      <trkpt lat="44.86263" lon="5.6893">
        <ele>705.75</ele>
        <time>2013-06-04T10:43:11Z</time>
      </trkpt>
      <trkpt lat="44.86246" lon="5.68916">
        <ele>701.42</ele>
        <time>2013-06-04T10:43:41Z</time>
      </trkpt>
      <trkpt lat="44.8625" lon="5.689">
        <ele>698.05</ele>
        <time>2013-06-04T10:44:11Z</time>
      </trkpt>
      <trkpt lat="44.86253" lon="5.68894">
        <ele>696.13</ele>
        <time>2013-06-04T10:44:41Z</time>
      </trkpt>
      <trkpt lat="44.86256" lon="5.68881">
        <ele>692.77</ele>
        <time>2013-06-04T10:45:11Z</time>
      </trkpt>
      <trkpt lat="44.86276" lon="5.68866">
        <ele>688.92</ele>
        <time>2013-06-04T10:45:41Z</time>
      </trkpt>
      <trkpt lat="44.86297" lon="5.68865">
        <ele>687.48</ele>
        <time>2013-06-04T10:46:11Z</time>
      </trkpt>
      <trkpt lat="44.86305" lon="5.68859">
        <ele>686.04</ele>
        <time>2013-06-04T10:46:41Z</time>
      </trkpt>
      <trkpt lat="44.86331" lon="5.68849">
        <ele>683.63</ele>
        <time>2013-06-04T10:47:11Z</time>
      </trkpt>
      <trkpt lat="44.8635" lon="5.68824">
        <ele>681.23</ele>
        <time>2013-06-04T10:47:41Z</time>
      </trkpt>
      <trkpt lat="44.86344" lon="5.68824">
        <ele>681.23</ele>
        <time>2013-06-04T10:48:11Z</time>
      </trkpt>
      <trkpt lat="44.86352" lon="5.68816">
        <ele>682.19</ele>
        <time>2013-06-04T10:48:41Z</time>
      </trkpt>
      <trkpt lat="44.8636" lon="5.68781">
        <ele>681.23</ele>
        <time>2013-06-04T10:49:11Z</time>
      </trkpt>
      <trkpt lat="44.86384" lon="5.68767">
        <ele>678.83</ele>
        <time>2013-06-04T10:49:41Z</time>
      </trkpt>
      <trkpt lat="44.86406" lon="5.68737">
        <ele>675.94</ele>
        <time>2013-06-04T10:50:11Z</time>
      </trkpt>
      <trkpt lat="44.86424" lon="5.68705">
        <ele>670.18</ele>
        <time>2013-06-04T10:50:41Z</time>
      </trkpt>
      <trkpt lat="44.86439" lon="5.68667">
        <ele>665.85</ele>
        <time>2013-06-04T10:51:11Z</time>
      </trkpt>
      <trkpt lat="44.86452" lon="5.68627">
        <ele>662.01</ele>
        <time>2013-06-04T10:51:41Z</time>
      </trkpt>
      <trkpt lat="44.86448" lon="5.68582">
        <ele>656.24</ele>
        <time>2013-06-04T10:52:11Z</time>
      </trkpt>
      <trkpt lat="44.86454" lon="5.68526">
        <ele>650.95</ele>
        <time>2013-06-04T10:52:41Z</time>
      </trkpt>
      <trkpt lat="44.86472" lon="5.68494">
        <ele>649.99</ele>
        <time>2013-06-04T10:53:11Z</time>
      </trkpt>
      <trkpt lat="44.86498" lon="5.68446">
        <ele>651.91</ele>
        <time>2013-06-04T10:53:41Z</time>
      </trkpt>
      <trkpt lat="44.86516" lon="5.68403">
        <ele>654.31</ele>
        <time>2013-06-04T10:54:11Z</time>
      </trkpt>
      <trkpt lat="44.86543" lon="5.68377">
        <ele>655.76</ele>
        <time>2013-06-04T10:54:41Z</time>
      </trkpt>
      <trkpt lat="44.86564" lon="5.68335">
        <ele>651.91</ele>
        <time>2013-06-04T10:55:11Z</time>
      </trkpt>
      <trkpt lat="44.86598" lon="5.68313">
        <ele>649.03</ele>
        <time>2013-06-04T10:55:41Z</time>
      </trkpt>
      <trkpt lat="44.86636" lon="5.68278">
        <ele>649.99</ele>
        <time>2013-06-04T10:56:11Z</time>
      </trkpt>
      <trkpt lat="44.86597" lon="5.68312">
        <ele>649.51</ele>
        <time>2013-06-04T10:56:41Z</time>
      </trkpt>
      <trkpt lat="44.86581" lon="5.68329">
        <ele>650.47</ele>
        <time>2013-06-04T10:57:11Z</time>
      </trkpt>
      <trkpt lat="44.86573" lon="5.68331">
        <ele>649.51</ele>
        <time>2013-06-04T10:57:41Z</time>
      </trkpt>
      <trkpt lat="44.86578" lon="5.68329">
        <ele>649.51</ele>
        <time>2013-06-04T10:58:11Z</time>
      </trkpt>
      <trkpt lat="44.86575" lon="5.6833">
        <ele>649.03</ele>
        <time>2013-06-04T10:58:41Z</time>
      </trkpt>
      <trkpt lat="44.86579" lon="5.68334">
        <ele>648.55</ele>
        <time>2013-06-04T10:59:11Z</time>
      </trkpt>
      <trkpt lat="44.86586" lon="5.68335">
        <ele>649.51</ele>
        <time>2013-06-04T10:59:41Z</time>
      </trkpt>
      <trkpt lat="44.86576" lon="5.6834">
        <ele>649.51</ele>
        <time>2013-06-04T11:00:11Z</time>
      </trkpt>
      <trkpt lat="44.86579" lon="5.68334">
        <ele>649.51</ele>
        <time>2013-06-04T11:00:41Z</time>
      </trkpt>
      <trkpt lat="44.86576" lon="5.68335">
        <ele>650.47</ele>
        <time>2013-06-04T11:01:11Z</time>
      </trkpt>
      <trkpt lat="44.86577" lon="5.68339">
        <ele>649.99</ele>
        <time>2013-06-04T11:01:41Z</time>
      </trkpt>
      <trkpt lat="44.86582" lon="5.68337">
        <ele>649.99</ele>
        <time>2013-06-04T11:02:11Z</time>
      </trkpt>
      <trkpt lat="44.86578" lon="5.68336">
        <ele>649.99</ele>
        <time>2013-06-04T11:02:41Z</time>
      </trkpt>
      <trkpt lat="44.86577" lon="5.68336">
        <ele>650.47</ele>
        <time>2013-06-04T11:03:11Z</time>
      </trkpt>
      <trkpt lat="44.86583" lon="5.68337">
        <ele>649.99</ele>
        <time>2013-06-04T11:03:41Z</time>
      </trkpt>
      <trkpt lat="44.86576" lon="5.68336">
        <ele>650.47</ele>
        <time>2013-06-04T11:04:11Z</time>
      </trkpt>
      <trkpt lat="44.86572" lon="5.68332">
        <ele>650.95</ele>
        <time>2013-06-04T11:04:41Z</time>
      </trkpt>
      <trkpt lat="44.86571" lon="5.68335">
        <ele>650.95</ele>
        <time>2013-06-04T11:05:11Z</time>
      </trkpt>
      <trkpt lat="44.86571" lon="5.68333">
        <ele>651.43</ele>
        <time>2013-06-04T11:05:41Z</time>
      </trkpt>
      <trkpt lat="44.86578" lon="5.68333">
        <ele>651.43</ele>
        <time>2013-06-04T11:06:11Z</time>
      </trkpt>
      <trkpt lat="44.86577" lon="5.68333">
        <ele>651.43</ele>
        <time>2013-06-04T11:06:41Z</time>
      </trkpt>
      <trkpt lat="44.86575" lon="5.68332">
        <ele>651.43</ele>
        <time>2013-06-04T11:07:11Z</time>
      </trkpt>
      <trkpt lat="44.86573" lon="5.68334">
        <ele>651.43</ele>
        <time>2013-06-04T11:07:41Z</time>
      </trkpt>
      <trkpt lat="44.86574" lon="5.68334">
        <ele>651.91</ele>
        <time>2013-06-04T11:08:11Z</time>
      </trkpt>
      <trkpt lat="44.86571" lon="5.68333">
        <ele>651.91</ele>
        <time>2013-06-04T11:08:41Z</time>
      </trkpt>
      <trkpt lat="44.86572" lon="5.68342">
        <ele>652.39</ele>
        <time>2013-06-04T11:09:11Z</time>
      </trkpt>
      <trkpt lat="44.86571" lon="5.68336">
        <ele>652.39</ele>
        <time>2013-06-04T11:09:41Z</time>
      </trkpt>
      <trkpt lat="44.86569" lon="5.6834">
        <ele>652.39</ele>
        <time>2013-06-04T11:10:11Z</time>
      </trkpt>
      <trkpt lat="44.86572" lon="5.68341">
        <ele>652.39</ele>
        <time>2013-06-04T11:10:41Z</time>
      </trkpt>
      <trkpt lat="44.86571" lon="5.68337">
        <ele>652.39</ele>
        <time>2013-06-04T11:11:11Z</time>
      </trkpt>
      <trkpt lat="44.86575" lon="5.6834">
        <ele>651.91</ele>
        <time>2013-06-04T11:11:41Z</time>
      </trkpt>
      <trkpt lat="44.86574" lon="5.68336">
        <ele>651.43</ele>
        <time>2013-06-04T11:12:11Z</time>
      </trkpt>
      <trkpt lat="44.86582" lon="5.68336">
        <ele>652.39</ele>
        <time>2013-06-04T11:12:41Z</time>
      </trkpt>
      <trkpt lat="44.86582" lon="5.68334">
        <ele>652.39</ele>
        <time>2013-06-04T11:13:11Z</time>
      </trkpt>
      <trkpt lat="44.8658" lon="5.68336">
        <ele>651.91</ele>
        <time>2013-06-04T11:13:41Z</time>
      </trkpt>
      <trkpt lat="44.86581" lon="5.68339">
        <ele>651.43</ele>
        <time>2013-06-04T11:14:11Z</time>
      </trkpt>
      <trkpt lat="44.86583" lon="5.68338">
        <ele>651.91</ele>
        <time>2013-06-04T11:14:41Z</time>
      </trkpt>
      <trkpt lat="44.86584" lon="5.6833">
        <ele>651.43</ele>
        <time>2013-06-04T11:15:11Z</time>
      </trkpt>
      <trkpt lat="44.86578" lon="5.6833">
        <ele>651.91</ele>
        <time>2013-06-04T11:15:41Z</time>
      </trkpt>
      <trkpt lat="44.86582" lon="5.68331">
        <ele>651.43</ele>
        <time>2013-06-04T11:16:11Z</time>
      </trkpt>
      <trkpt lat="44.86579" lon="5.68337">
        <ele>650.95</ele>
        <time>2013-06-04T11:16:41Z</time>
      </trkpt>
      <trkpt lat="44.86579" lon="5.68341">
        <ele>651.43</ele>
        <time>2013-06-04T11:17:11Z</time>
      </trkpt>
      <trkpt lat="44.86581" lon="5.68341">
        <ele>651.43</ele>
        <time>2013-06-04T11:17:41Z</time>
      </trkpt>
      <trkpt lat="44.86578" lon="5.68341">
        <ele>651.43</ele>
        <time>2013-06-04T11:18:11Z</time>
      </trkpt>
      <trkpt lat="44.86576" lon="5.68345">
        <ele>651.43</ele>
        <time>2013-06-04T11:18:41Z</time>
      </trkpt>
      <trkpt lat="44.86578" lon="5.68348">
        <ele>651.43</ele>
        <time>2013-06-04T11:19:11Z</time>
      </trkpt>
      <trkpt lat="44.86581" lon="5.68348">
        <ele>651.43</ele>
        <time>2013-06-04T11:19:41Z</time>
      </trkpt>
      <trkpt lat="44.86579" lon="5.68348">
        <ele>651.91</ele>
        <time>2013-06-04T11:20:11Z</time>
      </trkpt>
      <trkpt lat="44.86574" lon="5.68342">
        <ele>652.39</ele>
        <time>2013-06-04T11:20:41Z</time>
      </trkpt>
      <trkpt lat="44.86575" lon="5.68348">
        <ele>652.87</ele>
        <time>2013-06-04T11:21:11Z</time>
      </trkpt>
      <trkpt lat="44.86565" lon="5.68346">
        <ele>652.87</ele>
        <time>2013-06-04T11:21:41Z</time>
      </trkpt>
      <trkpt lat="44.86562" lon="5.68345">
        <ele>652.87</ele>
        <time>2013-06-04T11:22:11Z</time>
      </trkpt>
      <trkpt lat="44.86571" lon="5.68343">
        <ele>652.87</ele>
        <time>2013-06-04T11:22:41Z</time>
      </trkpt>
      <trkpt lat="44.86575" lon="5.68345">
        <ele>652.87</ele>
        <time>2013-06-04T11:23:11Z</time>
      </trkpt>
      <trkpt lat="44.8658" lon="5.68344">
        <ele>653.35</ele>
        <time>2013-06-04T11:23:41Z</time>
      </trkpt>
      <trkpt lat="44.86567" lon="5.68347">
        <ele>653.35</ele>
        <time>2013-06-04T11:24:11Z</time>
      </trkpt>
      <trkpt lat="44.86571" lon="5.68343">
        <ele>653.83</ele>
        <time>2013-06-04T11:24:41Z</time>
      </trkpt>
      <trkpt lat="44.86569" lon="5.68341">
        <ele>653.83</ele>
        <time>2013-06-04T11:25:11Z</time>
      </trkpt>
      <trkpt lat="44.86564" lon="5.68343">
        <ele>653.83</ele>
        <time>2013-06-04T11:25:41Z</time>
      </trkpt>
      <trkpt lat="44.86568" lon="5.68345">
        <ele>654.8</ele>
        <time>2013-06-04T11:26:11Z</time>
      </trkpt>
      <trkpt lat="44.86572" lon="5.68338">
        <ele>654.8</ele>
        <time>2013-06-04T11:26:41Z</time>
      </trkpt>
      <trkpt lat="44.86568" lon="5.68345">
        <ele>654.31</ele>
        <time>2013-06-04T11:27:11Z</time>
      </trkpt>
      <trkpt lat="44.86572" lon="5.6835">
        <ele>654.8</ele>
        <time>2013-06-04T11:27:41Z</time>
      </trkpt>
      <trkpt lat="44.86569" lon="5.68346">
        <ele>655.28</ele>
        <time>2013-06-04T11:28:11Z</time>
      </trkpt>
      <trkpt lat="44.86569" lon="5.6834">
        <ele>655.28</ele>
        <time>2013-06-04T11:28:41Z</time>
      </trkpt>
      <trkpt lat="44.86564" lon="5.68346">
        <ele>655.76</ele>
        <time>2013-06-04T11:29:11Z</time>
      </trkpt>
      <trkpt lat="44.86566" lon="5.68345">
        <ele>655.28</ele>
        <time>2013-06-04T11:29:41Z</time>
      </trkpt>
      <trkpt lat="44.86569" lon="5.68349">
        <ele>656.24</ele>
        <time>2013-06-04T11:30:11Z</time>
      </trkpt>
      <trkpt lat="44.86578" lon="5.68347">
        <ele>656.72</ele>
        <time>2013-06-04T11:30:41Z</time>
      </trkpt>
      <trkpt lat="44.86572" lon="5.68347">
        <ele>656.24</ele>
        <time>2013-06-04T11:31:11Z</time>
      </trkpt>
      <trkpt lat="44.86573" lon="5.68352">
        <ele>656.24</ele>
        <time>2013-06-04T11:31:41Z</time>
      </trkpt>
      <trkpt lat="44.8657" lon="5.68346">
        <ele>656.24</ele>
        <time>2013-06-04T11:32:11Z</time>
      </trkpt>
      <trkpt lat="44.86573" lon="5.68332">
        <ele>656.24</ele>
        <time>2013-06-04T11:32:41Z</time>
      </trkpt>
      <trkpt lat="44.8657" lon="5.68329">
        <ele>656.72</ele>
        <time>2013-06-04T11:33:11Z</time>
      </trkpt>
      <trkpt lat="44.86576" lon="5.68323">
        <ele>656.72</ele>
        <time>2013-06-04T11:33:41Z</time>
      </trkpt>
      <trkpt lat="44.86571" lon="5.68326">
        <ele>656.72</ele>
        <time>2013-06-04T11:34:11Z</time>
      </trkpt>
      <trkpt lat="44.86572" lon="5.68324">
        <ele>655.76</ele>
        <time>2013-06-04T11:34:41Z</time>
      </trkpt>
      <trkpt lat="44.86574" lon="5.68333">
        <ele>657.2</ele>
        <time>2013-06-04T11:35:11Z</time>
      </trkpt>
      <trkpt lat="44.86576" lon="5.68343">
        <ele>656.72</ele>
        <time>2013-06-04T11:35:41Z</time>
      </trkpt>
      <trkpt lat="44.86571" lon="5.68342">
        <ele>657.2</ele>
        <time>2013-06-04T11:36:11Z</time>
      </trkpt>
      <trkpt lat="44.86565" lon="5.68338">
        <ele>655.76</ele>
        <time>2013-06-04T11:36:41Z</time>
      </trkpt>
      <trkpt lat="44.86564" lon="5.68336">
        <ele>657.2</ele>
        <time>2013-06-04T11:37:11Z</time>
      </trkpt>
      <trkpt lat="44.86565" lon="5.68338">
        <ele>656.72</ele>
        <time>2013-06-04T11:37:41Z</time>
      </trkpt>
      <trkpt lat="44.86557" lon="5.68341">
        <ele>657.2</ele>
        <time>2013-06-04T11:38:11Z</time>
      </trkpt>
      <trkpt lat="44.86558" lon="5.68344">
        <ele>657.2</ele>
        <time>2013-06-04T11:38:41Z</time>
      </trkpt>
      <trkpt lat="44.86561" lon="5.68341">
        <ele>656.72</ele>
        <time>2013-06-04T11:39:11Z</time>
      </trkpt>
      <trkpt lat="44.8657" lon="5.68336">
        <ele>656.72</ele>
        <time>2013-06-04T11:39:41Z</time>
      </trkpt>
      <trkpt lat="44.8657" lon="5.68338">
        <ele>656.72</ele>
        <time>2013-06-04T11:40:11Z</time>
      </trkpt>
      <trkpt lat="44.86569" lon="5.68334">
        <ele>657.2</ele>
        <time>2013-06-04T11:40:41Z</time>
      </trkpt>
      <trkpt lat="44.8657" lon="5.68344">
        <ele>657.2</ele>
        <time>2013-06-04T11:41:11Z</time>
      </trkpt>
      <trkpt lat="44.86578" lon="5.68352">
        <ele>657.2</ele>
        <time>2013-06-04T11:41:41Z</time>
      </trkpt>
      <trkpt lat="44.86582" lon="5.68355">
        <ele>657.2</ele>
        <time>2013-06-04T11:42:11Z</time>
      </trkpt>
      <trkpt lat="44.86568" lon="5.68338">
        <ele>658.16</ele>
        <time>2013-06-04T11:42:41Z</time>
      </trkpt>
      <trkpt lat="44.86566" lon="5.68341">
        <ele>658.16</ele>
        <time>2013-06-04T11:43:11Z</time>
      </trkpt>
      <trkpt lat="44.86564" lon="5.68349">
        <ele>659.12</ele>
        <time>2013-06-04T11:43:41Z</time>
      </trkpt>
      <trkpt lat="44.86567" lon="5.68347">
        <ele>658.64</ele>
        <time>2013-06-04T11:44:11Z</time>
      </trkpt>
      <trkpt lat="44.86572" lon="5.68343">
        <ele>659.12</ele>
        <time>2013-06-04T11:44:41Z</time>
      </trkpt>
      <trkpt lat="44.86567" lon="5.68346">
        <ele>659.12</ele>
        <time>2013-06-04T11:45:11Z</time>
      </trkpt>
      <trkpt lat="44.86569" lon="5.68345">
        <ele>659.6</ele>
        <time>2013-06-04T11:45:41Z</time>
      </trkpt>
      <trkpt lat="44.86569" lon="5.68339">
        <ele>660.08</ele>
        <time>2013-06-04T11:46:11Z</time>
      </trkpt>
      <trkpt lat="44.86573" lon="5.68338">
        <ele>660.08</ele>
        <time>2013-06-04T11:46:41Z</time>
      </trkpt>
      <trkpt lat="44.86569" lon="5.68342">
        <ele>660.08</ele>
        <time>2013-06-04T11:47:11Z</time>
      </trkpt>
      <trkpt lat="44.86566" lon="5.6834">
        <ele>660.56</ele>
        <time>2013-06-04T11:47:41Z</time>
      </trkpt>
      <trkpt lat="44.86563" lon="5.68335">
        <ele>660.56</ele>
        <time>2013-06-04T11:48:11Z</time>
      </trkpt>
      <trkpt lat="44.86562" lon="5.6834">
        <ele>660.56</ele>
        <time>2013-06-04T11:48:41Z</time>
      </trkpt>
      <trkpt lat="44.86563" lon="5.68346">
        <ele>661.52</ele>
        <time>2013-06-04T11:49:11Z</time>
      </trkpt>
      <trkpt lat="44.8657" lon="5.68333">
        <ele>661.52</ele>
        <time>2013-06-04T11:49:41Z</time>
      </trkpt>
      <trkpt lat="44.86571" lon="5.68337">
        <ele>662.49</ele>
        <time>2013-06-04T11:50:11Z</time>
      </trkpt>
      <trkpt lat="44.86577" lon="5.68342">
        <ele>662.97</ele>
        <time>2013-06-04T11:50:41Z</time>
      </trkpt>
      <trkpt lat="44.86576" lon="5.68329">
        <ele>661.52</ele>
        <time>2013-06-04T11:51:11Z</time>
      </trkpt>
      <trkpt lat="44.86574" lon="5.68321">
        <ele>661.04</ele>
        <time>2013-06-04T11:51:41Z</time>
      </trkpt>
      <trkpt lat="44.86584" lon="5.68315">
        <ele>661.04</ele>
        <time>2013-06-04T11:52:11Z</time>
      </trkpt>
      <trkpt lat="44.86579" lon="5.68323">
        <ele>660.56</ele>
        <time>2013-06-04T11:52:41Z</time>
      </trkpt>
      <trkpt lat="44.86577" lon="5.68321">
        <ele>660.08</ele>
        <time>2013-06-04T11:53:11Z</time>
      </trkpt>
      <trkpt lat="44.86589" lon="5.68315">
        <ele>659.12</ele>
        <time>2013-06-04T11:53:41Z</time>
      </trkpt>
      <trkpt lat="44.86615" lon="5.68306">
        <ele>659.12</ele>
        <time>2013-06-04T11:54:11Z</time>
      </trkpt>
      <trkpt lat="44.86632" lon="5.68285">
        <ele>659.12</ele>
        <time>2013-06-04T11:54:41Z</time>
      </trkpt>
      <trkpt lat="44.86647" lon="5.68259">
        <ele>659.12</ele>
        <time>2013-06-04T11:55:11Z</time>
      </trkpt>
      <trkpt lat="44.86661" lon="5.68229">
        <ele>662.97</ele>
        <time>2013-06-04T11:55:41Z</time>
      </trkpt>
      <trkpt lat="44.86673" lon="5.68228">
        <ele>662.97</ele>
        <time>2013-06-04T11:56:11Z</time>
      </trkpt>
      <trkpt lat="44.86674" lon="5.68238">
        <ele>662.49</ele>
        <time>2013-06-04T11:56:41Z</time>
      </trkpt>
      <trkpt lat="44.86676" lon="5.68215">
        <ele>660.56</ele>
        <time>2013-06-04T11:57:11Z</time>
      </trkpt>
      <trkpt lat="44.86687" lon="5.68174">
        <ele>655.28</ele>
        <time>2013-06-04T11:57:41Z</time>
      </trkpt>
      <trkpt lat="44.86697" lon="5.68135">
        <ele>651.91</ele>
        <time>2013-06-04T11:58:11Z</time>
      </trkpt>
      <trkpt lat="44.86718" lon="5.68093">
        <ele>643.74</ele>
        <time>2013-06-04T11:58:41Z</time>
      </trkpt>
      <trkpt lat="44.86728" lon="5.68046">
        <ele>636.53</ele>
        <time>2013-06-04T11:59:11Z</time>
      </trkpt>
      <trkpt lat="44.86748" lon="5.68013">
        <ele>634.61</ele>
        <time>2013-06-04T11:59:41Z</time>
      </trkpt>
      <trkpt lat="44.86767" lon="5.67982">
        <ele>633.17</ele>
        <time>2013-06-04T12:00:11Z</time>
      </trkpt>
      <trkpt lat="44.86789" lon="5.67947">
        <ele>632.2</ele>
        <time>2013-06-04T12:00:41Z</time>
      </trkpt>
      <trkpt lat="44.86808" lon="5.67904">
        <ele>630.28</ele>
        <time>2013-06-04T12:01:11Z</time>
      </trkpt>
      <trkpt lat="44.86827" lon="5.67869">
        <ele>627.88</ele>
        <time>2013-06-04T12:01:41Z</time>
      </trkpt>
      <trkpt lat="44.86845" lon="5.67842">
        <ele>625.96</ele>
        <time>2013-06-04T12:02:11Z</time>
      </trkpt>
      <trkpt lat="44.86859" lon="5.67809">
        <ele>623.07</ele>
        <time>2013-06-04T12:02:41Z</time>
      </trkpt>
      <trkpt lat="44.86873" lon="5.67766">
        <ele>618.75</ele>
        <time>2013-06-04T12:03:11Z</time>
      </trkpt>
      <trkpt lat="44.86887" lon="5.6773">
        <ele>613.94</ele>
        <time>2013-06-04T12:03:41Z</time>
      </trkpt>
      <trkpt lat="44.86905" lon="5.67694">
        <ele>610.57</ele>
        <time>2013-06-04T12:04:11Z</time>
      </trkpt>
      <trkpt lat="44.86926" lon="5.67663">
        <ele>610.09</ele>
        <time>2013-06-04T12:04:41Z</time>
      </trkpt>
      <trkpt lat="44.86938" lon="5.67633">
        <ele>610.09</ele>
        <time>2013-06-04T12:05:11Z</time>
      </trkpt>
      <trkpt lat="44.8694" lon="5.67631">
        <ele>609.61</ele>
        <time>2013-06-04T12:05:41Z</time>
      </trkpt>
      <trkpt lat="44.86942" lon="5.67636">
        <ele>610.09</ele>
        <time>2013-06-04T12:06:11Z</time>
      </trkpt>
      <trkpt lat="44.86939" lon="5.67648">
        <ele>610.09</ele>
        <time>2013-06-04T12:06:41Z</time>
      </trkpt>
      <trkpt lat="44.86947" lon="5.67617">
        <ele>610.57</ele>
        <time>2013-06-04T12:07:11Z</time>
      </trkpt>
      <trkpt lat="44.86956" lon="5.67572">
        <ele>606.73</ele>
        <time>2013-06-04T12:07:41Z</time>
      </trkpt>
      <trkpt lat="44.86951" lon="5.67536">
        <ele>607.69</ele>
        <time>2013-06-04T12:08:11Z</time>
      </trkpt>
      <trkpt lat="44.8694" lon="5.67513">
        <ele>610.09</ele>
        <time>2013-06-04T12:08:41Z</time>
      </trkpt>
      <trkpt lat="44.86933" lon="5.67466">
        <ele>608.17</ele>
        <time>2013-06-04T12:09:11Z</time>
      </trkpt>
      <trkpt lat="44.86912" lon="5.67432">
        <ele>604.81</ele>
        <time>2013-06-04T12:09:41Z</time>
      </trkpt>
      <trkpt lat="44.86923" lon="5.67456">
        <ele>606.73</ele>
        <time>2013-06-04T12:10:11Z</time>
      </trkpt>
      <trkpt lat="44.86939" lon="5.67483">
        <ele>609.13</ele>
        <time>2013-06-04T12:10:41Z</time>
      </trkpt>
      <trkpt lat="44.86941" lon="5.67518">
        <ele>609.13</ele>
        <time>2013-06-04T12:11:11Z</time>
      </trkpt>
      <trkpt lat="44.86955" lon="5.67527">
        <ele>606.25</ele>
        <time>2013-06-04T12:11:41Z</time>
      </trkpt>
      <trkpt lat="44.86978" lon="5.67494">
        <ele>601.44</ele>
        <time>2013-06-04T12:12:11Z</time>
      </trkpt>
      <trkpt lat="44.87" lon="5.67447">
        <ele>597.12</ele>
        <time>2013-06-04T12:12:41Z</time>
      </trkpt>
      <trkpt lat="44.87015" lon="5.67395">
        <ele>596.15</ele>
        <time>2013-06-04T12:13:11Z</time>
      </trkpt>
      <trkpt lat="44.87019" lon="5.67396">
        <ele>596.64</ele>
        <time>2013-06-04T12:13:41Z</time>
      </trkpt>
      <trkpt lat="44.87018" lon="5.67395">
        <ele>596.64</ele>
        <time>2013-06-04T12:14:11Z</time>
      </trkpt>
      <trkpt lat="44.87023" lon="5.674">
        <ele>595.67</ele>
        <time>2013-06-04T12:14:41Z</time>
      </trkpt>
      <trkpt lat="44.87039" lon="5.67415">
        <ele>591.35</ele>
        <time>2013-06-04T12:15:11Z</time>
      </trkpt>
      <trkpt lat="44.87035" lon="5.67449">
        <ele>585.58</ele>
        <time>2013-06-04T12:15:41Z</time>
      </trkpt>
      <trkpt lat="44.87028" lon="5.6748">
        <ele>582.7</ele>
        <time>2013-06-04T12:16:11Z</time>
      </trkpt>
      <trkpt lat="44.87038" lon="5.67524">
        <ele>579.33</ele>
        <time>2013-06-04T12:16:41Z</time>
      </trkpt>
      <trkpt lat="44.87037" lon="5.67561">
        <ele>573.56</ele>
        <time>2013-06-04T12:17:11Z</time>
      </trkpt>
      <trkpt lat="44.87046" lon="5.67594">
        <ele>571.64</ele>
        <time>2013-06-04T12:17:41Z</time>
      </trkpt>
      <trkpt lat="44.87068" lon="5.67606">
        <ele>566.83</ele>
        <time>2013-06-04T12:18:11Z</time>
      </trkpt>
      <trkpt lat="44.87088" lon="5.67636">
        <ele>562.51</ele>
        <time>2013-06-04T12:18:41Z</time>
      </trkpt>
      <trkpt lat="44.87092" lon="5.67645">
        <ele>554.82</ele>
        <time>2013-06-04T12:19:11Z</time>
      </trkpt>
      <trkpt lat="44.87096" lon="5.67659">
        <ele>548.09</ele>
        <time>2013-06-04T12:19:41Z</time>
      </trkpt>
      <trkpt lat="44.8711" lon="5.67643">
        <ele>545.2</ele>
        <time>2013-06-04T12:20:11Z</time>
      </trkpt>
      <trkpt lat="44.87122" lon="5.67649">
        <ele>544.24</ele>
        <time>2013-06-04T12:20:41Z</time>
      </trkpt>
      <trkpt lat="44.87146" lon="5.67651">
        <ele>539.92</ele>
        <time>2013-06-04T12:21:11Z</time>
      </trkpt>
      <trkpt lat="44.8718" lon="5.67659">
        <ele>537.03</ele>
        <time>2013-06-04T12:21:41Z</time>
      </trkpt>
      <trkpt lat="44.87198" lon="5.67673">
        <ele>537.99</ele>
        <time>2013-06-04T12:22:11Z</time>
      </trkpt>
      <trkpt lat="44.87238" lon="5.67704">
        <ele>542.8</ele>
        <time>2013-06-04T12:22:41Z</time>
      </trkpt>
      <trkpt lat="44.87258" lon="5.67709">
        <ele>544.24</ele>
        <time>2013-06-04T12:23:11Z</time>
      </trkpt>
      <trkpt lat="44.87282" lon="5.67723">
        <ele>548.09</ele>
        <time>2013-06-04T12:23:41Z</time>
      </trkpt>
      <trkpt lat="44.87282" lon="5.67734">
        <ele>549.05</ele>
        <time>2013-06-04T12:24:11Z</time>
      </trkpt>
      <trkpt lat="44.87276" lon="5.67729">
        <ele>547.13</ele>
        <time>2013-06-04T12:24:41Z</time>
      </trkpt>
      <trkpt lat="44.87277" lon="5.67732">
        <ele>547.61</ele>
        <time>2013-06-04T12:25:11Z</time>
      </trkpt>
      <trkpt lat="44.87276" lon="5.6773">
        <ele>547.13</ele>
        <time>2013-06-04T12:25:41Z</time>
      </trkpt>
      <trkpt lat="44.87278" lon="5.6773">
        <ele>547.61</ele>
        <time>2013-06-04T12:26:11Z</time>
      </trkpt>
      <trkpt lat="44.87275" lon="5.67722">
        <ele>548.09</ele>
        <time>2013-06-04T12:26:41Z</time>
      </trkpt>
      <trkpt lat="44.87277" lon="5.67724">
        <ele>548.09</ele>
        <time>2013-06-04T12:27:11Z</time>
      </trkpt>
      <trkpt lat="44.87275" lon="5.67736">
        <ele>548.09</ele>
        <time>2013-06-04T12:27:41Z</time>
      </trkpt>
      <trkpt lat="44.87275" lon="5.67726">
        <ele>547.61</ele>
        <time>2013-06-04T12:28:11Z</time>
      </trkpt>
      <trkpt lat="44.87281" lon="5.67728">
        <ele>547.61</ele>
        <time>2013-06-04T12:28:41Z</time>
      </trkpt>
      <trkpt lat="44.87284" lon="5.67726">
        <ele>548.09</ele>
        <time>2013-06-04T12:29:11Z</time>
      </trkpt>
      <trkpt lat="44.87283" lon="5.67726">
        <ele>547.61</ele>
        <time>2013-06-04T12:29:41Z</time>
      </trkpt>
      <trkpt lat="44.87283" lon="5.67723">
        <ele>548.57</ele>
        <time>2013-06-04T12:30:11Z</time>
      </trkpt>
      <trkpt lat="44.87286" lon="5.67724">
        <ele>549.05</ele>
        <time>2013-06-04T12:30:41Z</time>
      </trkpt>
      <trkpt lat="44.87295" lon="5.67724">
        <ele>550.01</ele>
        <time>2013-06-04T12:31:11Z</time>
      </trkpt>
      <trkpt lat="44.8729" lon="5.67701">
        <ele>552.9</ele>
        <time>2013-06-04T12:31:41Z</time>
      </trkpt>
      <trkpt lat="44.87288" lon="5.67666">
        <ele>559.14</ele>
        <time>2013-06-04T12:32:11Z</time>
      </trkpt>
      <trkpt lat="44.87312" lon="5.67661">
        <ele>564.43</ele>
        <time>2013-06-04T12:32:41Z</time>
      </trkpt>
      <trkpt lat="44.87328" lon="5.67653">
        <ele>567.32</ele>
        <time>2013-06-04T12:33:11Z</time>
      </trkpt>
      <trkpt lat="44.8733" lon="5.67663">
        <ele>567.8</ele>
        <time>2013-06-04T12:33:41Z</time>
      </trkpt>
      <trkpt lat="44.87331" lon="5.67662">
        <ele>567.32</ele>
        <time>2013-06-04T12:34:11Z</time>
      </trkpt>
      <trkpt lat="44.87333" lon="5.67664">
        <ele>567.8</ele>
        <time>2013-06-04T12:34:41Z</time>
      </trkpt>
      <trkpt lat="44.87334" lon="5.67671">
        <ele>567.8</ele>
        <time>2013-06-04T12:35:11Z</time>
      </trkpt>
      <trkpt lat="44.87335" lon="5.67673">
        <ele>569.72</ele>
        <time>2013-06-04T12:35:41Z</time>
      </trkpt>
      <trkpt lat="44.87337" lon="5.67674">
        <ele>568.28</ele>
        <time>2013-06-04T12:36:11Z</time>
      </trkpt>
      <trkpt lat="44.87333" lon="5.6766">
        <ele>568.28</ele>
        <time>2013-06-04T12:36:41Z</time>
      </trkpt>
      <trkpt lat="44.87333" lon="5.67663">
        <ele>568.28</ele>
        <time>2013-06-04T12:37:11Z</time>
      </trkpt>
      <trkpt lat="44.87335" lon="5.6767">
        <ele>567.8</ele>
        <time>2013-06-04T12:37:41Z</time>
      </trkpt>
      <trkpt lat="44.87338" lon="5.67665">
        <ele>568.28</ele>
        <time>2013-06-04T12:38:11Z</time>
      </trkpt>
      <trkpt lat="44.87336" lon="5.67672">
        <ele>568.76</ele>
        <time>2013-06-04T12:38:41Z</time>
      </trkpt>
      <trkpt lat="44.87337" lon="5.67672">
        <ele>567.8</ele>
        <time>2013-06-04T12:39:11Z</time>
      </trkpt>
      <trkpt lat="44.8734" lon="5.67671">
        <ele>568.28</ele>
        <time>2013-06-04T12:39:41Z</time>
      </trkpt>
      <trkpt lat="44.87364" lon="5.67673">
        <ele>568.76</ele>
        <time>2013-06-04T12:40:11Z</time>
      </trkpt>
      <trkpt lat="44.8739" lon="5.67683">
        <ele>569.24</ele>
        <time>2013-06-04T12:40:41Z</time>
      </trkpt>
      <trkpt lat="44.87421" lon="5.67694">
        <ele>569.72</ele>
        <time>2013-06-04T12:41:11Z</time>
      </trkpt>
      <trkpt lat="44.87454" lon="5.67702">
        <ele>570.68</ele>
        <time>2013-06-04T12:41:41Z</time>
      </trkpt>
      <trkpt lat="44.87487" lon="5.67694">
        <ele>571.16</ele>
        <time>2013-06-04T12:42:11Z</time>
      </trkpt>
      <trkpt lat="44.87521" lon="5.67696">
        <ele>570.68</ele>
        <time>2013-06-04T12:42:41Z</time>
      </trkpt>
      <trkpt lat="44.87554" lon="5.67708">
        <ele>571.64</ele>
        <time>2013-06-04T12:43:11Z</time>
      </trkpt>
      <trkpt lat="44.87587" lon="5.6772">
        <ele>568.76</ele>
        <time>2013-06-04T12:43:41Z</time>
      </trkpt>
      <trkpt lat="44.87624" lon="5.67727">
        <ele>568.76</ele>
        <time>2013-06-04T12:44:11Z</time>
      </trkpt>
      <trkpt lat="44.87659" lon="5.67728">
        <ele>567.32</ele>
        <time>2013-06-04T12:44:41Z</time>
      </trkpt>
      <trkpt lat="44.87692" lon="5.67727">
        <ele>568.28</ele>
        <time>2013-06-04T12:45:11Z</time>
      </trkpt>
      <trkpt lat="44.87729" lon="5.67719">
        <ele>567.8</ele>
        <time>2013-06-04T12:45:41Z</time>
      </trkpt>
      <trkpt lat="44.87765" lon="5.67714">
        <ele>566.83</ele>
        <time>2013-06-04T12:46:11Z</time>
      </trkpt>
      <trkpt lat="44.87799" lon="5.67712">
        <ele>566.35</ele>
        <time>2013-06-04T12:46:41Z</time>
      </trkpt>
      <trkpt lat="44.87831" lon="5.67707">
        <ele>566.83</ele>
        <time>2013-06-04T12:47:11Z</time>
      </trkpt>
      <trkpt lat="44.87867" lon="5.67701">
        <ele>568.76</ele>
        <time>2013-06-04T12:47:41Z</time>
      </trkpt>
      <trkpt lat="44.87898" lon="5.67694">
        <ele>566.35</ele>
        <time>2013-06-04T12:48:11Z</time>
      </trkpt>
      <trkpt lat="44.87931" lon="5.67688">
        <ele>565.87</ele>
        <time>2013-06-04T12:48:41Z</time>
      </trkpt>
      <trkpt lat="44.87961" lon="5.67673">
        <ele>568.28</ele>
        <time>2013-06-04T12:49:11Z</time>
      </trkpt>
      <trkpt lat="44.87992" lon="5.67648">
        <ele>570.68</ele>
        <time>2013-06-04T12:49:41Z</time>
      </trkpt>
      <trkpt lat="44.88004" lon="5.67638">
        <ele>571.16</ele>
        <time>2013-06-04T12:50:11Z</time>
      </trkpt>
      <trkpt lat="44.88001" lon="5.67639">
        <ele>571.16</ele>
        <time>2013-06-04T12:50:41Z</time>
      </trkpt>
      <trkpt lat="44.88003" lon="5.6764">
        <ele>571.16</ele>
        <time>2013-06-04T12:51:11Z</time>
      </trkpt>
      <trkpt lat="44.88002" lon="5.6764">
        <ele>571.16</ele>
        <time>2013-06-04T12:51:41Z</time>
      </trkpt>
      <trkpt lat="44.88" lon="5.67636">
        <ele>571.16</ele>
        <time>2013-06-04T12:52:11Z</time>
      </trkpt>
      <trkpt lat="44.88003" lon="5.67638">
        <ele>571.16</ele>
        <time>2013-06-04T12:52:41Z</time>
      </trkpt>
      <trkpt lat="44.88003" lon="5.67638">
        <ele>571.64</ele>
        <time>2013-06-04T12:53:11Z</time>
      </trkpt>
      <trkpt lat="44.88003" lon="5.67642">
        <ele>572.12</ele>
        <time>2013-06-04T12:53:41Z</time>
      </trkpt>
      <trkpt lat="44.88" lon="5.67637">
        <ele>571.64</ele>
        <time>2013-06-04T12:54:11Z</time>
      </trkpt>
      <trkpt lat="44.88001" lon="5.67647">
        <ele>571.64</ele>
        <time>2013-06-04T12:54:41Z</time>
      </trkpt>
      <trkpt lat="44.88" lon="5.67647">
        <ele>572.12</ele>
        <time>2013-06-04T12:55:11Z</time>
      </trkpt>
      <trkpt lat="44.88004" lon="5.67641">
        <ele>571.64</ele>
        <time>2013-06-04T12:55:41Z</time>
      </trkpt>
      <trkpt lat="44.88003" lon="5.67641">
        <ele>572.12</ele>
        <time>2013-06-04T12:56:11Z</time>
      </trkpt>
      <trkpt lat="44.88004" lon="5.67635">
        <ele>572.12</ele>
        <time>2013-06-04T12:56:41Z</time>
      </trkpt>
      <trkpt lat="44.88017" lon="5.67653">
        <ele>566.83</ele>
        <time>2013-06-04T12:57:11Z</time>
      </trkpt>
      <trkpt lat="44.88029" lon="5.67657">
        <ele>562.03</ele>
        <time>2013-06-04T12:57:41Z</time>
      </trkpt>
      <trkpt lat="44.88049" lon="5.67659">
        <ele>560.11</ele>
        <time>2013-06-04T12:58:11Z</time>
      </trkpt>
      <trkpt lat="44.88069" lon="5.6767">
        <ele>554.34</ele>
        <time>2013-06-04T12:58:41Z</time>
      </trkpt>
      <trkpt lat="44.88086" lon="5.67687">
        <ele>550.97</ele>
        <time>2013-06-04T12:59:11Z</time>
      </trkpt>
      <trkpt lat="44.88119" lon="5.67682">
        <ele>549.05</ele>
        <time>2013-06-04T12:59:41Z</time>
      </trkpt>
      <trkpt lat="44.88147" lon="5.67676">
        <ele>546.17</ele>
        <time>2013-06-04T13:00:11Z</time>
      </trkpt>
      <trkpt lat="44.88177" lon="5.67687">
        <ele>543.28</ele>
        <time>2013-06-04T13:00:41Z</time>
      </trkpt>
      <trkpt lat="44.88216" lon="5.67671">
        <ele>539.92</ele>
        <time>2013-06-04T13:01:11Z</time>
      </trkpt>
      <trkpt lat="44.88251" lon="5.67672">
        <ele>536.07</ele>
        <time>2013-06-04T13:01:41Z</time>
      </trkpt>
      <trkpt lat="44.88283" lon="5.67662">
        <ele>534.15</ele>
        <time>2013-06-04T13:02:11Z</time>
      </trkpt>
      <trkpt lat="44.88303" lon="5.67654">
        <ele>532.23</ele>
        <time>2013-06-04T13:02:41Z</time>
      </trkpt>
      <trkpt lat="44.88332" lon="5.67659">
        <ele>527.9</ele>
        <time>2013-06-04T13:03:11Z</time>
      </trkpt>
      <trkpt lat="44.88366" lon="5.6764">
        <ele>525.98</ele>
        <time>2013-06-04T13:03:41Z</time>
      </trkpt>
      <trkpt lat="44.88392" lon="5.67621">
        <ele>524.06</ele>
        <time>2013-06-04T13:04:11Z</time>
      </trkpt>
      <trkpt lat="44.88417" lon="5.67607">
        <ele>521.65</ele>
        <time>2013-06-04T13:04:41Z</time>
      </trkpt>
      <trkpt lat="44.88437" lon="5.67601">
        <ele>518.77</ele>
        <time>2013-06-04T13:05:11Z</time>
      </trkpt>
      <trkpt lat="44.88445" lon="5.67602">
        <ele>516.85</ele>
        <time>2013-06-04T13:05:41Z</time>
      </trkpt>
      <trkpt lat="44.88459" lon="5.67606">
        <ele>512.52</ele>
        <time>2013-06-04T13:06:11Z</time>
      </trkpt>
      <trkpt lat="44.88475" lon="5.67599">
        <ele>509.16</ele>
        <time>2013-06-04T13:06:41Z</time>
      </trkpt>
      <trkpt lat="44.88496" lon="5.67593">
        <ele>505.79</ele>
        <time>2013-06-04T13:07:11Z</time>
      </trkpt>
      <trkpt lat="44.88503" lon="5.67594">
        <ele>505.79</ele>
        <time>2013-06-04T13:07:41Z</time>
      </trkpt>
      <trkpt lat="44.88507" lon="5.67586">
        <ele>505.79</ele>
        <time>2013-06-04T13:08:11Z</time>
      </trkpt>
      <trkpt lat="44.88514" lon="5.67583">
        <ele>504.83</ele>
        <time>2013-06-04T13:08:41Z</time>
      </trkpt>
      <trkpt lat="44.88523" lon="5.67581">
        <ele>505.79</ele>
        <time>2013-06-04T13:09:11Z</time>
      </trkpt>
      <trkpt lat="44.8851" lon="5.67591">
        <ele>505.31</ele>
        <time>2013-06-04T13:09:41Z</time>
      </trkpt>
      <trkpt lat="44.88503" lon="5.67598">
        <ele>505.79</ele>
        <time>2013-06-04T13:10:11Z</time>
      </trkpt>
      <trkpt lat="44.885" lon="5.67602">
        <ele>505.31</ele>
        <time>2013-06-04T13:10:41Z</time>
      </trkpt>
      <trkpt lat="44.88502" lon="5.67598">
        <ele>505.31</ele>
        <time>2013-06-04T13:11:11Z</time>
      </trkpt>
      <trkpt lat="44.88502" lon="5.67598">
        <ele>505.31</ele>
        <time>2013-06-04T13:11:41Z</time>
      </trkpt>
      <trkpt lat="44.88499" lon="5.67606">
        <ele>504.83</ele>
        <time>2013-06-04T13:12:11Z</time>
      </trkpt>
      <trkpt lat="44.88507" lon="5.67599">
        <ele>504.83</ele>
        <time>2013-06-04T13:12:41Z</time>
      </trkpt>
      <trkpt lat="44.88529" lon="5.67585">
        <ele>508.67</ele>
        <time>2013-06-04T13:13:11Z</time>
      </trkpt>
      <trkpt lat="44.8854" lon="5.67573">
        <ele>512.52</ele>
        <time>2013-06-04T13:13:41Z</time>
      </trkpt>
      <trkpt lat="44.88566" lon="5.67559">
        <ele>515.4</ele>
        <time>2013-06-04T13:14:11Z</time>
      </trkpt>
      <trkpt lat="44.88591" lon="5.67554">
        <ele>513</ele>
        <time>2013-06-04T13:14:41Z</time>
      </trkpt>
      <trkpt lat="44.88617" lon="5.67547">
        <ele>509.16</ele>
        <time>2013-06-04T13:15:11Z</time>
      </trkpt>
      <trkpt lat="44.88648" lon="5.6754">
        <ele>508.67</ele>
        <time>2013-06-04T13:15:41Z</time>
      </trkpt>
      <trkpt lat="44.88674" lon="5.67535">
        <ele>507.71</ele>
        <time>2013-06-04T13:16:11Z</time>
      </trkpt>
      <trkpt lat="44.88697" lon="5.6753">
        <ele>504.35</ele>
        <time>2013-06-04T13:16:41Z</time>
      </trkpt>
      <trkpt lat="44.88714" lon="5.67533">
        <ele>501.95</ele>
        <time>2013-06-04T13:17:11Z</time>
      </trkpt>
      <trkpt lat="44.88743" lon="5.67536">
        <ele>501.46</ele>
        <time>2013-06-04T13:17:41Z</time>
      </trkpt>
      <trkpt lat="44.88738" lon="5.67547">
        <ele>501.46</ele>
        <time>2013-06-04T13:18:11Z</time>
      </trkpt>
      <trkpt lat="44.88736" lon="5.67555">
        <ele>501.95</ele>
        <time>2013-06-04T13:18:41Z</time>
      </trkpt>
      <trkpt lat="44.88742" lon="5.67548">
        <ele>501.46</ele>
        <time>2013-06-04T13:19:11Z</time>
      </trkpt>
      <trkpt lat="44.88744" lon="5.67548">
        <ele>501.46</ele>
        <time>2013-06-04T13:19:41Z</time>
      </trkpt>
      <trkpt lat="44.88745" lon="5.67548">
        <ele>501.46</ele>
        <time>2013-06-04T13:20:11Z</time>
      </trkpt>
      <trkpt lat="44.8874" lon="5.67553">
        <ele>501.95</ele>
        <time>2013-06-04T13:20:41Z</time>
      </trkpt>
      <trkpt lat="44.88738" lon="5.67554">
        <ele>501.95</ele>
        <time>2013-06-04T13:21:11Z</time>
      </trkpt>
      <trkpt lat="44.88757" lon="5.67537">
        <ele>500.5</ele>
        <time>2013-06-04T13:21:41Z</time>
      </trkpt>
      <trkpt lat="44.88759" lon="5.67531">
        <ele>500.98</ele>
        <time>2013-06-04T13:22:11Z</time>
      </trkpt>
      <trkpt lat="44.88772" lon="5.67516">
        <ele>502.43</ele>
        <time>2013-06-04T13:22:41Z</time>
      </trkpt>
      <trkpt lat="44.88791" lon="5.67486">
        <ele>507.71</ele>
        <time>2013-06-04T13:23:11Z</time>
      </trkpt>
      <trkpt lat="44.88813" lon="5.67473">
        <ele>508.19</ele>
        <time>2013-06-04T13:23:41Z</time>
      </trkpt>
      <trkpt lat="44.8884" lon="5.67467">
        <ele>507.71</ele>
        <time>2013-06-04T13:24:11Z</time>
      </trkpt>
      <trkpt lat="44.88869" lon="5.67462">
        <ele>506.75</ele>
        <time>2013-06-04T13:24:41Z</time>
      </trkpt>
      <trkpt lat="44.88898" lon="5.67454">
        <ele>506.75</ele>
        <time>2013-06-04T13:25:11Z</time>
      </trkpt>
      <trkpt lat="44.88918" lon="5.6743">
        <ele>506.27</ele>
        <time>2013-06-04T13:25:41Z</time>
      </trkpt>
      <trkpt lat="44.88938" lon="5.67428">
        <ele>506.75</ele>
        <time>2013-06-04T13:26:11Z</time>
      </trkpt>
      <trkpt lat="44.88945" lon="5.67434">
        <ele>506.27</ele>
        <time>2013-06-04T13:26:41Z</time>
      </trkpt>
      <trkpt lat="44.8894" lon="5.67439">
        <ele>506.27</ele>
        <time>2013-06-04T13:27:11Z</time>
      </trkpt>
      <trkpt lat="44.88946" lon="5.67439">
        <ele>506.27</ele>
        <time>2013-06-04T13:27:41Z</time>
      </trkpt>
      <trkpt lat="44.88943" lon="5.67448">
        <ele>505.79</ele>
        <time>2013-06-04T13:28:11Z</time>
      </trkpt>
      <trkpt lat="44.88943" lon="5.67438">
        <ele>505.79</ele>
        <time>2013-06-04T13:28:41Z</time>
      </trkpt>
      <trkpt lat="44.88943" lon="5.67445">
        <ele>503.87</ele>
        <time>2013-06-04T13:29:11Z</time>
      </trkpt>
      <trkpt lat="44.88961" lon="5.67463">
        <ele>500.98</ele>
        <time>2013-06-04T13:29:41Z</time>
      </trkpt>
      <trkpt lat="44.88996" lon="5.67469">
        <ele>497.62</ele>
        <time>2013-06-04T13:30:11Z</time>
      </trkpt>
      <trkpt lat="44.89027" lon="5.67469">
        <ele>498.58</ele>
        <time>2013-06-04T13:30:41Z</time>
      </trkpt>
      <trkpt lat="44.89058" lon="5.67469">
        <ele>500.02</ele>
        <time>2013-06-04T13:31:11Z</time>
      </trkpt>
      <trkpt lat="44.89082" lon="5.67474">
        <ele>500.5</ele>
        <time>2013-06-04T13:31:41Z</time>
      </trkpt>
      <trkpt lat="44.8911" lon="5.67495">
        <ele>499.54</ele>
        <time>2013-06-04T13:32:11Z</time>
      </trkpt>
      <trkpt lat="44.89116" lon="5.67496">
        <ele>498.1</ele>
        <time>2013-06-04T13:32:41Z</time>
      </trkpt>
      <trkpt lat="44.89117" lon="5.67491">
        <ele>499.06</ele>
        <time>2013-06-04T13:33:11Z</time>
      </trkpt>
      <trkpt lat="44.89113" lon="5.67493">
        <ele>498.58</ele>
        <time>2013-06-04T13:33:41Z</time>
      </trkpt>
      <trkpt lat="44.89116" lon="5.6749">
        <ele>498.1</ele>
        <time>2013-06-04T13:34:11Z</time>
      </trkpt>
      <trkpt lat="44.89117" lon="5.67502">
        <ele>497.62</ele>
        <time>2013-06-04T13:34:41Z</time>
      </trkpt>
      <trkpt lat="44.89118" lon="5.675">
        <ele>497.14</ele>
        <time>2013-06-04T13:35:11Z</time>
      </trkpt>
      <trkpt lat="44.89118" lon="5.67498">
        <ele>497.62</ele>
        <time>2013-06-04T13:35:41Z</time>
      </trkpt>
      <trkpt lat="44.8912" lon="5.67502">
        <ele>497.62</ele>
        <time>2013-06-04T13:36:11Z</time>
      </trkpt>
      <trkpt lat="44.89114" lon="5.67505">
        <ele>497.62</ele>
        <time>2013-06-04T13:36:41Z</time>
      </trkpt>
      <trkpt lat="44.89113" lon="5.67496">
        <ele>498.58</ele>
        <time>2013-06-04T13:37:11Z</time>
      </trkpt>
      <trkpt lat="44.89119" lon="5.67499">
        <ele>499.06</ele>
        <time>2013-06-04T13:37:41Z</time>
      </trkpt>
      <trkpt lat="44.89127" lon="5.67503">
        <ele>497.62</ele>
        <time>2013-06-04T13:38:11Z</time>
      </trkpt>
      <trkpt lat="44.89133" lon="5.67505">
        <ele>498.1</ele>
        <time>2013-06-04T13:38:41Z</time>
      </trkpt>
      <trkpt lat="44.89158" lon="5.67505">
        <ele>499.06</ele>
        <time>2013-06-04T13:39:11Z</time>
      </trkpt>
      <trkpt lat="44.8918" lon="5.67485">
        <ele>500.5</ele>
        <time>2013-06-04T13:39:41Z</time>
      </trkpt>
      <trkpt lat="44.89202" lon="5.67487">
        <ele>500.02</ele>
        <time>2013-06-04T13:40:11Z</time>
      </trkpt>
      <trkpt lat="44.89222" lon="5.67488">
        <ele>500.5</ele>
        <time>2013-06-04T13:40:41Z</time>
      </trkpt>
      <trkpt lat="44.89251" lon="5.67486">
        <ele>501.46</ele>
        <time>2013-06-04T13:41:11Z</time>
      </trkpt>
    </trkseg>
  </trk>
</gpx>